Terminal Aerodrome Forecast
Issued by NWS

Home | Current Version | Previous Version | Text Only | Print | Product List | Glossary On
Versions: 1 2 3 4 5 6 7 8 9 10 11 12 13
000
FTUS43 KICT 301500 AAA
TAFCNU
TAF AMD
KCNU 301511Z 3015/3112 08005KT P6SM VCSH SCT025 BKN050
     FM301900 10007KT P6SM VCSH SCT015 BKN035
     FM310100 VRB05KT P6SM VCSH SCT020 BKN050
     FM310900 VRB03KT 2SM BR FEW009 SCT100=

USA.gov is the U.S. government's official web portal to all federal, state and local government web resources and services.